createdAt,value
2018-02-20T00:01:59.762Z,26.30
2018-02-20T00:04:27.625Z,24.20
2018-02-20T00:06:55.487Z,25.30
2018-02-20T00:09:23.370Z,30.62
2018-02-20T00:11:51.250Z,21.70
2018-02-20T00:14:19.123Z,23.87
2018-02-20T00:16:47.013Z,29.35
2018-02-20T00:19:14.896Z,26.73
2018-02-20T00:21:42.778Z,33.60
2018-02-20T00:24:10.669Z,23.05
2018-02-20T00:26:38.535Z,24.15
2018-02-20T00:29:06.394Z,25.40
2018-02-20T00:31:34.266Z,23.30
2018-02-20T00:34:02.127Z,25.55
2018-02-20T00:36:29.990Z,22.98
2018-02-20T00:38:57.901Z,29.05
2018-02-20T00:41:25.758Z,28.95
2018-02-20T00:43:53.622Z,26.92
2018-02-20T00:46:21.482Z,30.88
2018-02-20T00:48:49.355Z,27.15
2018-02-20T00:51:17.237Z,31.77
2018-02-20T00:53:45.133Z,24.25
2018-02-20T00:56:13.015Z,24.40
2018-02-20T00:58:40.894Z,27.73
2018-02-20T01:01:08.779Z,28.27
2018-02-20T01:03:36.634Z,27.80
2018-02-20T01:06:04.507Z,28.90
2018-02-20T01:08:32.399Z,23.62
2018-02-20T01:11:00.263Z,21.80
2018-02-20T01:13:28.138Z,22.77
2018-02-20T01:15:56.013Z,25.02
2018-02-20T01:18:23.862Z,23.33
2018-02-20T01:20:51.826Z,32.10
2018-02-20T01:23:19.704Z,25.58
2018-02-20T01:25:47.580Z,23.77
2018-02-20T01:28:15.460Z,35.85
2018-02-20T01:30:43.350Z,22.67
2018-02-20T01:33:11.291Z,22.15
2018-02-20T01:35:39.151Z,20.67
2018-02-20T01:38:07.016Z,32.63
2018-02-20T01:40:34.886Z,30.15
2018-02-20T01:43:02.765Z,26.02
2018-02-20T01:45:30.638Z,26.08
2018-02-20T01:47:58.518Z,29.67
2018-02-20T01:50:26.363Z,24.87
2018-02-20T01:52:54.243Z,29.52
2018-02-20T01:55:22.091Z,26.92
2018-02-20T01:57:49.954Z,26.65
2018-02-20T02:00:17.814Z,33.08
2018-02-20T02:02:45.711Z,25.92
2018-02-20T02:05:13.592Z,29.65
2018-02-20T02:07:41.453Z,27.25
2018-02-20T02:10:09.323Z,22.67
2018-02-20T02:12:37.179Z,22.77
2018-02-20T02:15:05.125Z,25.05
2018-02-20T02:17:32.918Z,27.40
2018-02-20T02:20:00.786Z,28.17
2018-02-20T02:22:28.675Z,24.35
2018-02-20T02:24:56.538Z,30.65
2018-02-20T02:27:24.407Z,24.17
2018-02-20T02:29:52.275Z,23.65
2018-02-20T02:32:20.151Z,26.73
2018-02-20T02:34:48.014Z,38.10
2018-02-20T02:37:15.896Z,26.35
2018-02-20T02:39:43.786Z,26.73
2018-02-20T02:42:11.698Z,24.20
2018-02-20T02:44:39.563Z,26.37
2018-02-20T02:47:07.439Z,22.48
2018-02-20T02:49:35.307Z,33.78
2018-02-20T02:52:03.182Z,31.00
2018-02-20T02:54:31.035Z,24.08
2018-02-20T02:56:58.908Z,26.85
2018-02-20T02:59:26.792Z,24.45
2018-02-20T03:01:54.658Z,30.75
2018-02-20T03:04:22.535Z,24.23
2018-02-20T03:06:50.398Z,28.20
2018-02-20T03:09:18.282Z,26.48
2018-02-20T03:11:46.170Z,29.40
2018-02-20T03:14:14.071Z,25.65
2018-02-20T03:16:41.942Z,26.20
2018-02-20T03:19:09.798Z,26.17
2018-02-20T03:21:37.675Z,25.35
2018-02-20T03:24:05.519Z,30.98
2018-02-20T03:26:33.389Z,30.35
2018-02-20T03:29:01.293Z,29.42
2018-02-20T03:31:29.148Z,25.37
2018-02-20T03:33:57.026Z,25.12
2018-02-20T03:36:24.893Z,32.67
2018-02-20T03:38:52.759Z,26.90
2018-02-20T03:41:20.615Z,29.05
2018-02-20T03:43:48.498Z,25.20
2018-02-20T03:46:16.378Z,26.70
2018-02-20T03:48:44.274Z,29.10
2018-02-20T03:51:12.166Z,25.70
2018-02-20T03:53:40.019Z,29.12
2018-02-20T03:56:07.890Z,27.15
2018-02-20T03:58:35.776Z,26.65
2018-02-20T04:01:03.626Z,29.10
2018-02-20T04:03:31.495Z,31.08
2018-02-20T04:05:59.380Z,25.90
2018-02-20T04:08:27.254Z,25.00
2018-02-20T04:10:55.125Z,26.12
2018-02-20T04:13:22.990Z,27.00
2018-02-20T04:15:50.874Z,23.02
2018-02-20T04:18:18.731Z,25.75
2018-02-20T04:20:46.627Z,26.87
2018-02-20T04:23:14.493Z,29.98
2018-02-20T04:25:42.358Z,29.75
2018-02-20T04:28:10.235Z,31.17
2018-02-20T04:30:38.090Z,25.00
2018-02-20T04:33:06.013Z,35.17
2018-02-20T04:35:34.924Z,27.50
2018-02-20T04:38:02.840Z,29.37
2018-02-20T04:40:30.780Z,29.10
2018-02-20T04:42:58.704Z,23.48
2018-02-20T04:45:26.608Z,27.48
2018-02-20T04:47:54.508Z,25.17
2018-02-20T04:50:22.408Z,26.60
2018-02-20T04:52:50.284Z,17.12
2018-02-20T04:55:18.204Z,24.52
2018-02-20T04:57:46.112Z,24.05
2018-02-20T05:00:14.008Z,21.55
2018-02-20T05:02:41.935Z,29.20
2018-02-20T05:05:09.831Z,28.27
2018-02-20T05:07:37.731Z,21.33
2018-02-20T05:10:05.640Z,26.42
2018-02-20T05:12:33.528Z,25.25
2018-02-20T05:15:01.437Z,25.50
2018-02-20T05:17:29.337Z,34.40
2018-02-20T05:19:57.244Z,25.05
2018-02-20T05:22:25.149Z,25.05
2018-02-20T05:24:53.068Z,19.37
2018-02-20T05:27:20.941Z,27.23
2018-02-20T05:29:48.848Z,24.40
2018-02-20T05:32:16.764Z,22.48
2018-02-20T05:34:44.656Z,23.58
2018-02-20T05:37:12.578Z,26.27
2018-02-20T05:39:40.476Z,25.12
2018-02-20T05:42:08.385Z,32.10
2018-02-20T05:44:37.264Z,27.25
2018-02-20T05:47:05.165Z,29.75
2018-02-20T05:49:34.068Z,21.83
2018-02-20T05:52:01.960Z,24.23
2018-02-20T05:54:29.887Z,31.12
2018-02-20T05:56:57.767Z,25.52
2018-02-20T05:59:25.657Z,30.15
2018-02-20T06:01:53.580Z,27.42
2018-02-20T06:04:21.496Z,27.02
2018-02-20T06:06:49.416Z,31.67
2018-02-20T06:09:17.326Z,34.08
2018-02-20T06:11:45.209Z,28.30
2018-02-20T06:14:13.160Z,32.65
2018-02-20T06:16:41.076Z,27.37
2018-02-20T06:19:09.021Z,35.78
2018-02-20T06:21:36.904Z,30.40
2018-02-20T06:24:04.840Z,28.15
2018-02-20T06:26:32.770Z,33.45
2018-02-20T06:29:00.676Z,31.98
2018-02-20T06:31:28.605Z,38.95
2018-02-20T06:33:56.500Z,35.00
2018-02-20T06:36:24.406Z,29.52
2018-02-20T06:38:52.345Z,33.15
2018-02-20T06:41:20.277Z,37.92
2018-02-20T06:43:48.294Z,32.05
2018-02-20T06:46:16.306Z,33.33
2018-02-20T06:48:46.357Z,33.63
2018-02-20T06:51:14.357Z,41.83
2018-02-20T06:53:42.346Z,38.60
2018-02-20T06:56:10.377Z,38.90
2018-02-20T06:58:38.403Z,41.60
2018-02-20T07:01:06.391Z,35.30
2018-02-20T07:03:35.418Z,31.42
2018-02-20T07:06:03.438Z,31.67
2018-02-20T07:08:31.475Z,37.53
2018-02-20T07:10:59.430Z,33.15
2018-02-20T07:13:27.429Z,33.40
2018-02-20T07:15:56.518Z,40.10
2018-02-20T07:18:24.533Z,39.90
2018-02-20T07:20:52.543Z,37.33
2018-02-20T07:23:20.578Z,37.35
2018-02-20T07:25:48.591Z,39.80
2018-02-20T07:28:16.586Z,33.17
2018-02-20T07:30:44.671Z,37.90
2018-02-20T07:33:12.707Z,39.97
2018-02-20T07:35:40.775Z,36.92
2018-02-20T07:38:08.806Z,29.48
2018-02-20T07:40:36.769Z,31.60
2018-02-20T07:43:04.761Z,28.80
2018-02-20T07:45:32.776Z,32.13
2018-02-20T07:48:00.790Z,31.83
2018-02-20T07:50:28.833Z,29.80
2018-02-20T07:52:56.873Z,35.97
2018-02-20T07:55:24.850Z,55.12
2018-02-20T07:57:52.830Z,45.63
2018-02-20T08:00:20.846Z,31.12
2018-02-20T08:02:48.843Z,34.08
2018-02-20T08:05:16.841Z,35.08
2018-02-20T08:07:44.906Z,39.10
2018-02-20T08:10:12.905Z,36.53
2018-02-20T08:12:40.961Z,33.53
2018-02-20T08:15:09.634Z,33.78
2018-02-20T08:17:37.673Z,36.60
2018-02-20T08:20:05.683Z,33.63
2018-02-20T08:22:33.713Z,30.75
2018-02-20T08:25:01.705Z,30.12
2018-02-20T08:27:29.725Z,31.58
2018-02-20T08:29:57.717Z,33.08
2018-02-20T08:32:25.702Z,37.10
2018-02-20T08:34:53.706Z,37.90
2018-02-20T08:37:21.749Z,32.22
2018-02-20T08:39:49.701Z,32.25
2018-02-20T08:42:17.750Z,27.50
2018-02-20T08:44:45.761Z,32.00
2018-02-20T08:47:13.758Z,33.67
2018-02-20T08:49:41.834Z,31.48
2018-02-20T08:52:09.853Z,29.37
2018-02-20T08:54:37.877Z,28.38
2018-02-20T08:57:05.876Z,29.23
2018-02-20T08:59:33.849Z,28.52
2018-02-20T09:02:01.844Z,28.73
2018-02-20T09:04:29.802Z,31.58
2018-02-20T09:06:57.806Z,26.75
2018-02-20T09:09:25.838Z,31.95
2018-02-20T09:11:53.825Z,34.50
2018-02-20T09:14:21.847Z,34.53
2018-02-20T09:16:49.829Z,32.17
2018-02-20T09:19:17.850Z,32.78
2018-02-20T09:21:45.886Z,33.53
2018-02-20T09:24:13.873Z,33.15
2018-02-20T09:26:41.886Z,32.28
2018-02-20T09:29:10.202Z,33.97
2018-02-20T09:31:38.181Z,35.05
2018-02-20T09:34:06.206Z,28.25
2018-02-20T09:36:34.213Z,29.60
2018-02-20T09:39:02.245Z,33.42
2018-02-20T09:41:30.245Z,36.80
2018-02-20T09:43:58.229Z,36.95
2018-02-20T09:46:26.262Z,34.80
2018-02-20T09:48:54.263Z,35.13
2018-02-20T09:51:22.285Z,33.20
2018-02-20T09:53:50.275Z,31.90
2018-02-20T09:56:18.290Z,32.53
2018-02-20T09:58:46.254Z,29.75
2018-02-20T10:01:14.301Z,31.80
2018-02-20T10:03:42.311Z,31.62
2018-02-20T10:06:10.334Z,30.85
2018-02-20T10:08:38.430Z,30.67
2018-02-20T10:11:06.443Z,29.52
2018-02-20T10:13:34.428Z,30.62
2018-02-20T10:16:02.546Z,31.50
2018-02-20T10:18:30.553Z,36.67
2018-02-20T10:20:58.595Z,31.35
2018-02-20T10:23:26.611Z,39.00
2018-02-20T10:25:54.829Z,42.30
2018-02-20T10:28:22.856Z,32.45
2018-02-20T10:30:50.865Z,28.20
2018-02-20T10:33:19.917Z,32.92
2018-02-20T10:35:47.927Z,36.45
2018-02-20T10:38:16.013Z,32.92
2018-02-20T10:40:44.241Z,33.63
2018-02-20T10:43:12.355Z,30.80
2018-02-20T10:45:40.377Z,32.70
2018-02-20T10:48:08.383Z,32.13
2018-02-20T10:50:36.417Z,35.63
2018-02-20T10:53:04.388Z,33.85
2018-02-20T10:55:32.361Z,30.62
2018-02-20T10:58:00.377Z,36.40
2018-02-20T11:00:28.376Z,32.22
2018-02-20T11:02:56.395Z,31.45
2018-02-20T11:05:24.425Z,88.68
2018-02-20T11:07:52.455Z,35.28
2018-02-20T11:10:20.475Z,40.17
2018-02-20T11:12:48.522Z,35.05
2018-02-20T11:15:16.557Z,34.03
2018-02-20T11:17:44.599Z,30.58
2018-02-20T11:20:12.748Z,28.83
2018-02-20T11:22:41.809Z,33.88
2018-02-20T11:25:10.083Z,33.40
2018-02-20T11:27:38.101Z,30.65
2018-02-20T11:30:06.154Z,33.42
2018-02-20T11:32:34.161Z,31.60
2018-02-20T11:35:02.182Z,26.20
2018-02-20T11:37:31.286Z,31.80
2018-02-20T11:39:59.293Z,34.03
2018-02-20T11:42:27.364Z,32.03
2018-02-20T11:44:55.385Z,31.55
2018-02-20T11:47:23.393Z,30.73
2018-02-20T11:49:51.391Z,29.70
2018-02-20T11:52:19.382Z,33.03
2018-02-20T11:54:47.401Z,31.25
2018-02-20T11:57:15.413Z,34.33
2018-02-20T11:59:43.418Z,29.73
2018-02-20T12:02:12.462Z,30.42
2018-02-20T12:04:40.553Z,34.92
2018-02-20T12:07:08.594Z,32.33
2018-02-20T12:09:36.626Z,31.50
2018-02-20T12:12:04.621Z,28.85
2018-02-20T12:14:32.585Z,26.62
2018-02-20T12:17:00.588Z,44.33
2018-02-20T12:19:28.648Z,55.30
2018-02-20T12:21:56.672Z,36.88
2018-02-20T12:24:24.684Z,32.72
2018-02-20T12:26:52.696Z,34.10
2018-02-20T12:29:20.698Z,29.63
2018-02-20T12:31:48.681Z,26.77
2018-02-20T12:34:16.717Z,28.33
2018-02-20T12:36:44.735Z,27.23
2018-02-20T12:39:12.821Z,26.80
2018-02-20T12:41:41.893Z,32.33
2018-02-20T12:44:09.934Z,31.08
2018-02-20T12:46:37.989Z,24.40
2018-02-20T12:49:06.005Z,24.67
2018-02-20T12:51:33.985Z,26.80
2018-02-20T12:54:02.006Z,26.92
2018-02-20T12:56:30.062Z,27.58
2018-02-20T12:58:58.093Z,24.52
2018-02-20T13:01:26.139Z,63.17
2018-02-20T13:03:55.041Z,27.80
2018-02-20T13:06:23.006Z,32.72
2018-02-20T13:08:50.989Z,30.20
2018-02-20T13:11:18.991Z,28.00
2018-02-20T13:13:46.991Z,32.05
2018-02-20T13:16:15.009Z,27.13
2018-02-20T13:18:43.070Z,33.72
2018-02-20T13:21:11.102Z,27.52
2018-02-20T13:23:39.222Z,28.15
2018-02-20T13:26:07.326Z,27.42
2018-02-20T13:28:35.367Z,27.55
2018-02-20T13:31:03.368Z,28.77
2018-02-20T13:33:31.374Z,29.65
2018-02-20T13:35:59.389Z,30.58
2018-02-20T13:38:27.432Z,26.95
2018-02-20T13:40:55.437Z,26.75
2018-02-20T13:43:23.490Z,28.55
2018-02-20T13:45:51.502Z,31.92
2018-02-20T13:48:19.546Z,25.48
2018-02-20T13:50:47.558Z,27.98
2018-02-20T13:53:15.613Z,24.92
2018-02-20T13:55:43.739Z,24.98
2018-02-20T13:58:11.797Z,32.65
2018-02-20T14:00:39.839Z,29.85
2018-02-20T14:03:07.886Z,27.30
2018-02-20T14:05:36.913Z,28.85
2018-02-20T14:08:04.923Z,29.65
2018-02-20T14:10:32.895Z,31.87
2018-02-20T14:13:00.910Z,29.83
2018-02-20T14:15:28.913Z,32.72
2018-02-20T14:17:58.950Z,32.00
2018-02-20T14:20:26.949Z,34.45
2018-02-20T14:22:54.937Z,31.42
2018-02-20T14:25:22.961Z,31.87
2018-02-20T14:27:50.937Z,35.42
2018-02-20T14:30:18.911Z,21.33
2018-02-20T14:32:46.973Z,38.40
2018-02-20T14:35:15.023Z,30.88
2018-02-20T14:37:43.041Z,32.88
2018-02-20T14:40:11.057Z,32.70
2018-02-20T14:42:39.681Z,32.50
2018-02-20T14:45:07.677Z,34.88
2018-02-20T14:47:35.706Z,30.33
2018-02-20T14:50:03.709Z,30.92
2018-02-20T14:52:31.689Z,37.75
2018-02-20T14:54:59.781Z,38.90
2018-02-20T14:57:27.818Z,32.78
2018-02-20T14:59:55.833Z,30.48
2018-02-20T15:02:23.832Z,26.25
2018-02-20T15:04:51.817Z,27.42
2018-02-20T15:07:19.823Z,32.47
2018-02-20T15:09:47.842Z,30.17
2018-02-20T15:12:15.874Z,39.70
2018-02-20T15:14:43.889Z,35.33
2018-02-20T15:17:11.980Z,37.33
2018-02-20T15:19:40.099Z,32.90
2018-02-20T15:22:08.158Z,35.80
2018-02-20T15:24:36.157Z,32.92
2018-02-20T15:27:04.129Z,32.33
2018-02-20T15:29:32.157Z,31.92
2018-02-20T15:32:00.209Z,36.13
2018-02-20T15:34:28.229Z,39.42
2018-02-20T15:36:56.339Z,36.13
2018-02-20T15:39:24.374Z,31.67
2018-02-20T15:41:52.369Z,30.75
2018-02-20T15:44:20.427Z,31.10
2018-02-20T15:46:48.477Z,27.10
2018-02-20T15:49:16.449Z,28.17
2018-02-20T15:51:44.473Z,25.33
2018-02-20T15:54:12.538Z,30.42
2018-02-20T15:56:40.758Z,19.40
2018-02-20T15:59:09.116Z,29.52
2018-02-20T16:01:37.507Z,26.20
2018-02-20T16:04:05.786Z,33.83
2018-02-20T16:06:33.923Z,27.90
2018-02-20T16:09:02.038Z,33.47
2018-02-20T16:11:30.049Z,34.97
2018-02-20T16:13:58.991Z,35.28
2018-02-20T16:16:27.001Z,36.03
2018-02-20T16:18:54.973Z,38.28
2018-02-20T16:21:23.017Z,32.15
2018-02-20T16:23:51.015Z,45.35
2018-02-20T16:26:19.013Z,44.47
2018-02-20T16:28:46.986Z,44.00
2018-02-20T16:31:15.026Z,40.17
2018-02-20T16:33:43.057Z,35.42
2018-02-20T16:36:11.179Z,39.63
2018-02-20T16:38:39.576Z,39.72
2018-02-20T16:41:07.568Z,36.58
2018-02-20T16:43:35.590Z,36.10
2018-02-20T16:46:03.657Z,36.17
2018-02-20T16:48:31.685Z,37.10
2018-02-20T16:50:59.920Z,39.58
2018-02-20T16:53:27.896Z,32.90
2018-02-20T16:55:55.830Z,32.95
2018-02-20T16:58:23.745Z,33.33
2018-02-20T17:00:51.633Z,33.47
2018-02-20T17:03:19.536Z,36.95
2018-02-20T17:05:47.441Z,35.65
2018-02-20T17:08:15.325Z,34.40
2018-02-20T17:10:43.257Z,32.53
2018-02-20T17:13:12.296Z,38.42
2018-02-20T17:15:40.309Z,37.85
2018-02-20T17:18:08.230Z,36.35
2018-02-20T17:20:36.137Z,34.92
2018-02-20T17:23:04.060Z,37.58
2018-02-20T17:25:32.032Z,43.90
2018-02-20T17:27:59.949Z,36.67
2018-02-20T17:30:27.873Z,35.47
2018-02-20T17:32:55.768Z,50.75
2018-02-20T17:35:23.683Z,38.63
2018-02-20T17:37:51.577Z,36.95
2018-02-20T17:40:19.488Z,33.92
2018-02-20T17:42:47.428Z,41.88
2018-02-20T17:45:15.356Z,39.80
2018-02-20T17:47:43.270Z,45.47
2018-02-20T17:50:11.212Z,33.58
2018-02-20T17:52:39.143Z,39.88
2018-02-20T17:55:07.053Z,40.60
2018-02-20T17:57:34.963Z,43.20
2018-02-20T18:00:02.898Z,40.12
2018-02-20T18:02:30.816Z,46.05
2018-02-20T18:04:58.748Z,44.28
2018-02-20T18:07:26.659Z,37.67
2018-02-20T18:09:54.570Z,42.53
2018-02-20T18:12:22.483Z,41.42
2018-02-20T18:14:50.378Z,51.30
2018-02-20T18:17:18.272Z,41.47
2018-02-20T18:19:46.196Z,42.28
2018-02-20T18:22:14.182Z,47.03
2018-02-20T18:24:42.389Z,48.42
2018-02-20T18:27:10.589Z,39.88
2018-02-20T18:29:38.524Z,38.25
2018-02-20T18:32:06.404Z,40.20
2018-02-20T18:34:34.328Z,45.70
2018-02-20T18:37:02.274Z,47.75
2018-02-20T18:39:30.246Z,46.35
2018-02-20T18:41:58.338Z,38.30
2018-02-20T18:44:26.248Z,39.63
2018-02-20T18:46:54.138Z,44.03
2018-02-20T18:49:22.045Z,38.10
2018-02-20T18:51:49.981Z,36.63
2018-02-20T18:54:17.881Z,42.80
2018-02-20T18:56:45.850Z,43.72
2018-02-20T18:59:13.786Z,43.85
2018-02-20T19:01:41.778Z,40.22
2018-02-20T19:04:09.815Z,37.38
2018-02-20T19:06:37.802Z,39.95
2018-02-20T19:09:05.722Z,50.17
2018-02-20T19:11:33.623Z,38.90
2018-02-20T19:14:01.541Z,33.22
2018-02-20T19:16:29.511Z,46.37
2018-02-20T19:18:57.440Z,34.42
2018-02-20T19:21:26.430Z,41.70
2018-02-20T19:23:54.338Z,34.50
2018-02-20T19:26:22.277Z,47.13
2018-02-20T19:28:50.176Z,40.22
2018-02-20T19:31:18.100Z,39.60
2018-02-20T19:33:48.920Z,37.05
2018-02-20T19:36:16.830Z,37.33
2018-02-20T19:38:44.820Z,46.20
2018-02-20T19:41:12.773Z,37.67
2018-02-20T19:43:40.700Z,34.97
2018-02-20T19:46:08.636Z,37.67
2018-02-20T19:48:36.548Z,47.30
2018-02-20T19:51:04.464Z,35.88
2018-02-20T19:53:32.377Z,41.75
2018-02-20T19:56:00.305Z,42.05
2018-02-20T19:58:28.201Z,47.35
2018-02-20T20:00:56.196Z,43.90
2018-02-20T20:03:24.126Z,45.92
2018-02-20T20:05:52.021Z,47.22
2018-02-20T20:08:19.998Z,44.17
2018-02-20T20:10:47.961Z,46.22
2018-02-20T20:13:15.885Z,42.97
2018-02-20T20:15:43.814Z,47.40
2018-02-20T20:18:11.755Z,39.88
2018-02-20T20:20:39.818Z,41.88
2018-02-20T20:23:07.772Z,49.70
2018-02-20T20:25:35.729Z,44.13
2018-02-20T20:28:03.624Z,48.00
2018-02-20T20:30:31.528Z,46.55
2018-02-20T20:32:59.453Z,47.45
2018-02-20T20:35:27.388Z,42.13
2018-02-20T20:37:55.298Z,48.90
2018-02-20T20:40:23.225Z,47.97
2018-02-20T20:42:51.158Z,50.17
2018-02-20T20:45:19.062Z,38.65
2018-02-20T20:47:46.968Z,52.03
2018-02-20T20:50:14.893Z,47.50
2018-02-20T20:52:42.798Z,49.90
2018-02-20T20:55:10.761Z,44.08
2018-02-20T20:57:38.666Z,48.10
2018-02-20T21:00:07.629Z,45.10
2018-02-20T21:02:35.530Z,51.35
2018-02-20T21:05:03.457Z,44.22
2018-02-20T21:07:31.349Z,44.28
2018-02-20T21:09:59.357Z,51.33
2018-02-20T21:12:27.301Z,50.55
2018-02-20T21:14:56.213Z,46.03
2018-02-20T21:17:24.116Z,48.85
2018-02-20T21:19:52.016Z,49.95
2018-02-20T21:22:19.929Z,49.72
2018-02-20T21:24:47.918Z,57.08
2018-02-20T21:27:15.834Z,48.10
2018-02-20T21:29:43.753Z,52.70
2018-02-20T21:32:11.746Z,53.83
2018-02-20T21:34:39.727Z,53.10
2018-02-20T21:37:07.645Z,43.35
2018-02-20T21:39:35.551Z,69.40
2018-02-20T21:42:03.472Z,64.45
2018-02-20T21:44:31.437Z,58.15
2018-02-20T21:46:59.493Z,60.08
2018-02-20T21:49:27.426Z,50.33
2018-02-20T21:51:55.317Z,56.92
2018-02-20T21:54:23.250Z,52.78
2018-02-20T21:56:51.176Z,54.47
2018-02-20T21:59:19.070Z,54.92
2018-02-20T22:01:46.995Z,56.92
2018-02-20T22:04:14.905Z,48.53
2018-02-20T22:06:42.829Z,51.90
2018-02-20T22:09:10.828Z,63.30
2018-02-20T22:11:38.886Z,55.83
2018-02-20T22:14:06.901Z,58.10
2018-02-20T22:16:34.898Z,65.12
2018-02-20T22:19:02.906Z,61.37
2018-02-20T22:21:30.917Z,59.38
2018-02-20T22:23:58.938Z,64.57
2018-02-20T22:26:27.001Z,53.33
2018-02-20T22:28:54.997Z,56.50
2018-02-20T22:31:23.006Z,53.17
2018-02-20T22:33:51.014Z,60.42
2018-02-20T22:36:19.013Z,57.03
2018-02-20T22:38:47.202Z,66.37
2018-02-20T22:41:15.062Z,59.60
2018-02-20T22:43:43.158Z,61.70
2018-02-20T22:46:11.265Z,55.47
2018-02-20T22:48:39.281Z,57.83
2018-02-20T22:51:07.315Z,65.60
2018-02-20T22:53:35.334Z,66.32
2018-02-20T22:56:03.330Z,61.88
2018-02-20T22:58:31.353Z,61.17
2018-02-20T23:00:59.407Z,70.90
2018-02-20T23:03:27.445Z,55.90
2018-02-20T23:05:55.468Z,66.50
2018-02-20T23:08:23.470Z,59.85
2018-02-20T23:10:51.430Z,61.37
2018-02-20T23:13:19.553Z,70.68
2018-02-20T23:15:47.557Z,57.00
2018-02-20T23:18:15.596Z,63.50
2018-02-20T23:20:43.650Z,59.17
2018-02-20T23:23:11.755Z,56.58
2018-02-20T23:25:40.813Z,61.35
2018-02-20T23:28:08.874Z,62.42
2018-02-20T23:30:36.902Z,65.35
2018-02-20T23:33:04.881Z,52.47
2018-02-20T23:35:33.018Z,65.12
2018-02-20T23:38:01.096Z,55.65
2018-02-20T23:40:29.126Z,58.40
2018-02-20T23:42:57.145Z,57.05
2018-02-20T23:45:25.195Z,70.07
2018-02-20T23:47:54.265Z,61.40
2018-02-20T23:50:22.254Z,58.87
2018-02-20T23:52:50.270Z,63.87
2018-02-20T23:55:18.295Z,64.65
2018-02-20T23:57:46.312Z,58.38
